Time,TemperatureF,DewpointF,PressureIn,WindDirection,WindDirectionDegrees,WindSpeedMPH,WindSpeedGustMPH,Humidity,HourlyPrecipIn,Conditions,Clouds,dailyrainin,SolarRadiationWatts/m^2,SoftwareType,DateUTC
2013-04-24 00:00:00,35.2,34.4,30.06,NNE,17,5.8,5.8,97,0.00,RA,SKC,0.00,0.0,WeatherDisplay:10.37,2013-04-24 05:00:00,
2013-04-24 00:05:00,35.1,34.1,30.06,NNE,26,17.3,17.3,96,0.00,RA,SKC,0.00,0.0,WeatherDisplay:10.37,2013-04-24 05:05:00,
2013-04-24 00:10:00,35.0,34.0,30.06,NNW,337,4.6,4.6,96,0.00,CLR,SKC,0.00,0.0,WeatherDisplay:10.37,2013-04-24 05:10:00,
2013-04-24 00:15:00,35.0,34.2,30.07,NNE,26,5.8,5.8,97,0.00,CLR,SKC,0.00,0.0,WeatherDisplay:10.37,2013-04-24 05:15:00,
2013-04-24 00:20:00,34.9,34.1,30.06,NE,39,11.5,11.5,97,0.00,CLR,SKC,0.00,0.0,WeatherDisplay:10.37,2013-04-24 05:20:00,
2013-04-24 00:25:00,34.9,34.1,30.07,North,5,9.2,9.2,97,0.00,CLR,SKC,0.00,0.0,WeatherDisplay:10.37,2013-04-24 05:25:00,
2013-04-24 00:30:00,34.9,34.1,30.08,NNE,23,11.5,11.5,97,0.00,CLR,SKC,0.00,0.0,WeatherDisplay:10.37,2013-04-24 05:30:00,
2013-04-24 00:35:00,35.0,34.2,30.08,NE,36,10.4,10.4,97,0.00,CLR,SKC,0.00,0.0,WeatherDisplay:10.37,2013-04-24 05:35:00,
2013-04-24 00:40:00,35.0,34.2,30.08,NE,36,8.1,8.1,97,0.00,CLR,SKC,0.00,0.0,WeatherDisplay:10.37,2013-04-24 05:40:00,
2013-04-24 00:45:00,35.0,34.2,30.09,NE,40,9.0,9.0,97,0.00,CLR,SKC,0.00,0.0,WeatherDisplay:10.37,2013-04-24 05:45:00,
2013-04-24 00:50:00,34.8,34.0,30.09,NNE,30,12.7,12.7,97,0.00,CLR,SKC,0.00,0.0,WeatherDisplay:10.37,2013-04-24 05:50:00,
2013-04-24 00:55:00,34.7,33.9,30.08,NE,53,12.7,12.7,97,0.00,CLR,SKC,0.00,0.0,WeatherDisplay:10.37,2013-04-24 05:55:00,
2013-04-24 01:00:00,34.7,33.9,30.08,North,5,16.1,16.1,97,0.00,CLR,SKC,0.00,0.0,WeatherDisplay:10.37,2013-04-24 06:00:00,
2013-04-24 01:05:00,34.6,33.8,30.08,North,360,11.5,11.5,97,0.00,CLR,SKC,0.00,0.0,WeatherDisplay:10.37,2013-04-24 06:05:00,
2013-04-24 01:10:00,34.5,33.5,30.06,NNW,330,11.0,11.0,96,0.00,CLR,SKC,0.00,0.0,WeatherDisplay:10.37,2013-04-24 06:10:00,
2013-04-24 01:15:00,34.5,33.5,30.07,NNE,17,8.1,8.1,96,0.00,CLR,SKC,0.00,0.0,WeatherDisplay:10.37,2013-04-24 06:15:00,
2013-04-24 01:20:00,34.6,33.8,30.08,NW,311,6.9,6.9,97,0.00,CLR,SKC,0.00,0.0,WeatherDisplay:10.37,2013-04-24 06:20:00,
2013-04-24 01:25:00,34.6,33.6,30.07,North,9,11.5,11.5,96,0.00,CLR,SKC,0.00,0.0,WeatherDisplay:10.37,2013-04-24 06:25:00,
2013-04-24 01:30:00,34.5,33.5,30.06,North,10,11.5,11.5,96,0.00,CLR,SKC,0.00,0.0,WeatherDisplay:10.37,2013-04-24 06:30:00,
2013-04-24 01:35:00,34.5,33.7,30.07,NNE,17,3.5,3.5,97,0.00,CLR,SKC,0.00,0.0,WeatherDisplay:10.37,2013-04-24 06:35:00,
2013-04-24 01:40:00,34.5,33.5,30.07,NNE,24,11.5,11.5,96,0.00,CLR,SKC,0.00,0.0,WeatherDisplay:10.37,2013-04-24 06:40:00,
2013-04-24 01:45:00,34.4,33.6,30.07,NNW,348,12.0,12.0,97,0.00,CLR,SKC,0.00,0.0,WeatherDisplay:10.37,2013-04-24 06:45:00,
2013-04-24 01:50:00,34.4,33.6,30.07,NE,39,12.0,12.0,97,0.00,CLR,SKC,0.00,0.0,WeatherDisplay:10.37,2013-04-24 06:50:00,
2013-04-24 01:55:00,34.3,33.5,30.07,NNW,332,11.5,11.5,97,0.00,CLR,SKC,0.00,0.0,WeatherDisplay:10.37,2013-04-24 06:55:00,
2013-04-24 02:00:00,34.5,33.7,30.06,North,350,13.0,13.0,97,0.00,CLR,SKC,0.00,0.0,WeatherDisplay:10.37,2013-04-24 07:00:00,
2013-04-24 02:05:00,34.4,33.6,30.06,NNE,30,11.5,11.5,97,0.00,CLR,SKC,0.00,0.0,WeatherDisplay:10.37,2013-04-24 07:05:00,
2013-04-24 02:10:00,34.4,33.6,30.06,ENE,74,9.2,9.2,97,0.00,CLR,SKC,0.00,0.0,WeatherDisplay:10.37,2013-04-24 07:10:00,
2013-04-24 02:15:00,34.4,33.6,30.06,North,5,6.0,6.0,97,0.00,CLR,SKC,0.00,0.0,WeatherDisplay:10.37,2013-04-24 07:15:00,
2013-04-24 02:20:00,34.4,33.6,30.06,ENE,77,10.4,10.4,97,0.00,CLR,SKC,0.00,0.0,WeatherDisplay:10.37,2013-04-24 07:20:00,
2013-04-24 02:25:00,34.4,33.6,30.06,NNE,27,2.3,2.3,97,0.00,CLR,SKC,0.00,0.0,WeatherDisplay:10.37,2013-04-24 07:25:00,
2013-04-24 02:30:00,34.4,33.6,30.07,NE,43,11.5,11.5,97,0.00,CLR,SKC,0.00,0.0,WeatherDisplay:10.37,2013-04-24 07:30:00,
2013-04-24 02:35:00,34.3,33.5,30.09,North,355,9.2,9.2,97,0.00,CLR,SKC,0.00,0.0,WeatherDisplay:10.37,2013-04-24 07:35:00,
2013-04-24 02:40:00,34.4,33.6,30.08,NE,52,11.5,11.5,97,0.00,CLR,SKC,0.00,0.0,WeatherDisplay:10.37,2013-04-24 07:40:00,
2013-04-24 02:45:00,34.4,33.6,30.08,NE,38,6.9,6.9,97,0.00,CLR,SKC,0.00,0.0,WeatherDisplay:10.37,2013-04-24 07:45:00,
2013-04-24 02:50:00,34.4,33.6,30.08,NE,44,4.6,4.6,97,0.00,CLR,SKC,0.00,0.0,WeatherDisplay:10.37,2013-04-24 07:50:00,
2013-04-24 02:55:00,34.5,33.7,30.07,NE,42,11.5,11.5,97,0.00,CLR,SKC,0.00,0.0,WeatherDisplay:10.37,2013-04-24 07:55:00,
2013-04-24 03:00:00,34.5,33.7,30.08,North,360,12.0,12.0,97,0.00,CLR,SKC,0.00,0.0,WeatherDisplay:10.37,2013-04-24 08:00:00,
2013-04-24 03:05:00,34.4,33.6,30.08,NNE,20,15.0,15.0,97,0.00,CLR,SKC,0.00,0.0,WeatherDisplay:10.37,2013-04-24 08:05:00,
2013-04-24 03:10:00,34.4,33.6,30.08,NNE,32,15.0,15.0,97,0.00,CLR,SKC,0.00,0.0,WeatherDisplay:10.37,2013-04-24 08:10:00,
2013-04-24 03:15:00,34.3,33.5,30.08,North,5,10.4,10.4,97,0.01,RA,SKC,0.01,0.0,WeatherDisplay:10.37,2013-04-24 08:15:00,
2013-04-24 03:20:00,34.4,33.6,30.08,NNW,331,6.9,6.9,97,0.01,RA,SKC,0.01,0.0,WeatherDisplay:10.37,2013-04-24 08:20:00,
2013-04-24 03:25:00,34.3,33.5,30.07,NE,46,5.0,5.0,97,0.01,RA,SKC,0.01,0.0,WeatherDisplay:10.37,2013-04-24 08:25:00,
2013-04-24 03:30:00,34.3,33.5,30.07,East,88,5.8,5.8,97,0.01,CLR,SKC,0.01,0.0,WeatherDisplay:10.37,2013-04-24 08:30:00,
2013-04-24 03:35:00,34.3,33.5,30.08,North,349,6.9,6.9,97,0.01,CLR,SKC,0.01,0.0,WeatherDisplay:10.37,2013-04-24 08:35:00,
2013-04-24 03:40:00,34.3,33.5,30.09,NE,45,12.0,12.0,97,0.01,CLR,SKC,0.01,0.0,WeatherDisplay:10.37,2013-04-24 08:40:00,
2013-04-24 03:45:00,34.2,33.4,30.08,NNW,348,9.0,9.0,97,0.01,CLR,SKC,0.01,0.0,WeatherDisplay:10.37,2013-04-24 08:45:00,
2013-04-24 03:50:00,34.2,33.4,30.10,NE,40,4.6,4.6,97,0.01,CLR,SKC,0.01,0.0,WeatherDisplay:10.37,2013-04-24 08:50:00,
2013-04-24 03:55:00,34.2,33.4,30.11,NNE,16,10.4,10.4,97,0.01,CLR,SKC,0.01,0.0,WeatherDisplay:10.37,2013-04-24 08:55:00,
2013-04-24 04:00:00,34.2,33.4,30.12,NE,40,4.6,4.6,97,0.01,CLR,SKC,0.01,0.0,WeatherDisplay:10.37,2013-04-24 09:00:00,
2013-04-24 04:05:00,34.2,33.2,30.11,NNE,28,11.5,11.5,96,0.01,CLR,SKC,0.01,0.0,WeatherDisplay:10.37,2013-04-24 09:05:00,
2013-04-24 04:10:00,34.2,33.2,30.11,NW,316,6.9,6.9,96,0.01,CLR,SKC,0.01,0.0,WeatherDisplay:10.37,2013-04-24 09:10:00,
2013-04-24 04:15:00,34.2,33.2,30.13,West,277,5.8,5.8,96,0.00,CLR,SKC,0.01,0.0,WeatherDisplay:10.37,2013-04-24 09:15:00,
2013-04-24 04:20:00,34.3,33.3,30.15,NNE,27,6.9,6.9,96,0.00,CLR,SKC,0.01,0.0,WeatherDisplay:10.37,2013-04-24 09:20:00,
2013-04-24 04:25:00,34.3,33.3,30.14,NW,321,13.8,13.8,96,0.00,CLR,SKC,0.01,0.0,WeatherDisplay:10.37,2013-04-24 09:25:00,
2013-04-24 04:30:00,34.4,33.4,30.16,North,9,3.5,3.5,96,0.00,CLR,SKC,0.01,0.0,WeatherDisplay:10.37,2013-04-24 09:30:00,
2013-04-24 04:35:00,34.3,33.3,30.16,ESE,107,16.1,16.1,96,0.00,CLR,SKC,0.01,0.0,WeatherDisplay:10.37,2013-04-24 09:35:00,
2013-04-24 04:40:00,34.2,33.2,30.16,NW,317,17.3,17.3,96,0.00,CLR,SKC,0.01,0.0,WeatherDisplay:10.37,2013-04-24 09:40:00,
2013-04-24 04:45:00,34.1,33.1,30.16,NNE,19,6.9,6.9,96,0.00,CLR,SKC,0.01,0.0,WeatherDisplay:10.37,2013-04-24 09:45:00,
2013-04-24 04:50:00,34.1,33.1,30.16,North,360,8.1,8.1,96,0.00,CLR,SKC,0.01,0.0,WeatherDisplay:10.37,2013-04-24 09:50:00,
2013-04-24 04:55:00,34.1,33.1,30.16,NNE,18,13.8,13.8,96,0.00,CLR,SKC,0.01,0.0,WeatherDisplay:10.37,2013-04-24 09:55:00,
2013-04-24 05:00:00,34.1,33.1,30.15,North,355,11.5,11.5,96,0.00,CLR,SKC,0.01,0.0,WeatherDisplay:10.37,2013-04-24 10:00:00,
2013-04-24 05:05:00,34.1,33.1,30.15,NW,317,3.5,3.5,96,0.00,CLR,SKC,0.01,0.0,WeatherDisplay:10.37,2013-04-24 10:05:00,
2013-04-24 05:10:00,34.1,33.1,30.15,NNE,29,8.1,8.1,96,0.00,CLR,SKC,0.01,0.0,WeatherDisplay:10.37,2013-04-24 10:10:00,
2013-04-24 05:15:00,34.1,33.1,30.15,WSW,242,5.8,5.8,96,0.00,CLR,SKC,0.01,0.0,WeatherDisplay:10.37,2013-04-24 10:15:00,
2013-04-24 05:20:00,34.1,33.1,30.15,NE,38,11.5,11.5,96,0.00,CLR,SKC,0.01,0.0,WeatherDisplay:10.37,2013-04-24 10:20:00,
2013-04-24 05:25:00,34.1,33.1,30.15,North,5,6.9,6.9,96,0.00,CLR,SKC,0.01,0.0,WeatherDisplay:10.37,2013-04-24 10:25:00,
2013-04-24 05:30:00,34.0,33.0,30.15,NNW,329,10.4,10.4,96,0.00,CLR,SKC,0.01,0.0,WeatherDisplay:10.37,2013-04-24 10:30:00,
2013-04-24 05:35:00,34.0,33.0,30.15,WNW,282,11.5,11.5,96,0.00,CLR,SKC,0.01,0.0,WeatherDisplay:10.37,2013-04-24 10:35:00,
2013-04-24 05:40:00,34.0,33.0,30.15,North,11,2.3,0.0,96,0.00,CLR,SKC,0.01,0.0,WeatherDisplay:10.37,2013-04-24 10:40:00,
2013-04-24 05:45:00,34.1,33.1,30.15,NNE,22,3.5,3.5,96,0.00,CLR,SKC,0.01,0.0,WeatherDisplay:10.37,2013-04-24 10:45:00,
2013-04-24 05:50:00,34.1,33.1,30.15,NNE,24,9.2,9.2,96,0.00,CLR,SKC,0.01,0.0,WeatherDisplay:10.37,2013-04-24 10:50:00,
2013-04-24 05:55:00,34.1,33.1,30.16,NNE,24,4.6,4.6,96,0.00,CLR,SKC,0.01,0.0,WeatherDisplay:10.37,2013-04-24 10:55:00,
2013-04-24 06:00:00,34.0,33.0,30.16,North,5,15.0,15.0,96,0.00,CLR,SKC,0.01,0.0,WeatherDisplay:10.37,2013-04-24 11:00:00,
2013-04-24 06:05:00,33.9,32.9,30.16,NNW,344,11.5,11.5,96,0.00,OVC,SKC,0.01,0.0,WeatherDisplay:10.37,2013-04-24 11:05:00,
2013-04-24 06:10:00,33.8,32.8,30.15,North,351,10.4,10.4,96,0.00,OVC,SKC,0.01,0.0,WeatherDisplay:10.37,2013-04-24 11:10:00,
2013-04-24 06:15:00,33.9,32.9,30.15,North,5,11.5,11.5,96,0.00,OVC,SKC,0.01,0.0,WeatherDisplay:10.37,2013-04-24 11:15:00,
2013-04-24 06:20:00,33.8,32.8,30.16,NNW,348,15.0,15.0,96,0.00,OVC,SKC,0.01,0.0,WeatherDisplay:10.37,2013-04-24 11:20:00,
2013-04-24 06:25:00,33.7,32.7,30.17,NNE,28,12.7,12.7,96,0.00,OVC,SKC,0.01,0.0,WeatherDisplay:10.37,2013-04-24 11:25:00,
2013-04-24 06:30:00,33.7,32.7,30.16,NNE,32,6.9,6.9,96,0.00,OVC,SKC,0.01,0.0,WeatherDisplay:10.37,2013-04-24 11:30:00,
2013-04-24 06:35:00,33.6,32.6,30.16,NNE,30,15.0,15.0,96,0.00,OVC,SKC,0.01,0.0,WeatherDisplay:10.37,2013-04-24 11:35:00,
2013-04-24 06:40:00,33.5,32.5,30.16,NE,39,6.9,6.9,96,0.00,OVC,SKC,0.01,5.0,WeatherDisplay:10.37,2013-04-24 11:40:00,
2013-04-24 06:45:00,33.5,32.5,30.16,North,350,11.5,11.5,96,0.00,OVC,SKC,0.01,11.0,WeatherDisplay:10.37,2013-04-24 11:45:00,
2013-04-24 06:50:00,33.5,32.2,30.17,NNE,31,3.5,3.5,95,0.00,OVC,SKC,0.01,14.0,WeatherDisplay:10.37,2013-04-24 11:50:00,
2013-04-24 06:55:00,33.5,32.2,30.17,NNE,25,2.3,2.3,95,0.00,OVC,SKC,0.01,16.0,WeatherDisplay:10.37,2013-04-24 11:55:00,
2013-04-24 07:00:00,33.6,32.3,30.17,NNW,341,3.5,3.5,95,0.00,OVC,SKC,0.01,21.0,WeatherDisplay:10.37,2013-04-24 12:00:00,
2013-04-24 07:05:00,33.5,32.2,30.18,NNE,23,9.2,9.2,95,0.00,OVC,SKC,0.01,25.0,WeatherDisplay:10.37,2013-04-24 12:05:00,
2013-04-24 07:10:00,33.4,32.1,30.18,NNW,345,3.5,3.5,95,0.00,OVC,SKC,0.01,33.0,WeatherDisplay:10.37,2013-04-24 12:10:00,
2013-04-24 07:15:00,33.4,32.1,30.18,East,82,6.9,6.9,95,0.00,OVC,SKC,0.01,46.0,WeatherDisplay:10.37,2013-04-24 12:15:00,
2013-04-24 07:20:00,33.4,32.1,30.18,NW,319,10.4,10.4,95,0.00,BKN,SKC,0.01,56.0,WeatherDisplay:10.37,2013-04-24 12:20:00,
2013-04-24 07:25:00,33.4,32.1,30.19,NNE,13,4.6,4.6,95,0.00,OVC,SKC,0.01,32.0,WeatherDisplay:10.37,2013-04-24 12:25:00,
2013-04-24 07:30:00,33.6,32.3,30.19,NNE,30,5.8,5.8,95,0.00,OVC,SKC,0.01,32.0,WeatherDisplay:10.37,2013-04-24 12:30:00,
2013-04-24 07:35:00,33.5,32.2,30.20,NNW,335,10.4,10.4,95,0.00,OVC,SKC,0.01,47.0,WeatherDisplay:10.37,2013-04-24 12:35:00,
2013-04-24 07:41:00,33.4,32.1,30.20,NNW,344,3.5,3.5,95,0.00,OVC,SKC,0.01,46.0,WeatherDisplay:10.37,2013-04-24 12:41:00,
2013-04-24 07:46:00,33.2,31.9,30.20,NW,311,17.3,17.3,95,0.00,OVC,SKC,0.01,56.0,WeatherDisplay:10.37,2013-04-24 12:46:00,
2013-04-24 07:51:00,33.1,31.8,30.20,NW,305,2.3,2.3,95,0.00,OVC,SKC,0.01,62.0,WeatherDisplay:10.37,2013-04-24 12:51:00,
2013-04-24 07:56:00,33.2,31.9,30.20,North,355,3.5,3.5,95,0.00,OVC,SKC,0.01,62.0,WeatherDisplay:10.37,2013-04-24 12:56:00,
2013-04-24 08:01:00,33.2,31.7,30.20,NE,48,10.4,10.4,94,0.00,OVC,SKC,0.01,60.0,WeatherDisplay:10.37,2013-04-24 13:01:00,
2013-04-24 08:06:00,33.2,31.7,30.20,North,360,7.0,7.0,94,0.00,OVC,SKC,0.01,47.0,WeatherDisplay:10.37,2013-04-24 13:06:00,
2013-04-24 08:11:00,33.2,31.7,30.20,North,355,9.2,9.2,94,0.00,OVC,SKC,0.01,51.0,WeatherDisplay:10.37,2013-04-24 13:11:00,
2013-04-24 08:16:00,33.2,31.7,30.20,NNW,341,9.2,9.2,94,0.00,OVC,SKC,0.01,63.0,WeatherDisplay:10.37,2013-04-24 13:16:00,
2013-04-24 08:21:00,33.3,31.8,30.21,NW,325,5.0,5.0,94,0.00,OVC,SKC,0.01,69.0,WeatherDisplay:10.37,2013-04-24 13:21:00,
2013-04-24 08:26:00,33.3,31.8,30.21,NNW,343,3.5,3.5,94,0.00,OVC,SKC,0.01,107.0,WeatherDisplay:10.37,2013-04-24 13:26:00,
2013-04-24 08:31:00,33.4,31.9,30.21,NE,38,10.4,10.4,94,0.00,BKN,SKC,0.01,132.0,WeatherDisplay:10.37,2013-04-24 13:31:00,
2013-04-24 08:36:00,33.5,31.7,30.22,NW,325,11.5,11.5,93,0.00,BKN,SKC,0.01,158.0,WeatherDisplay:10.37,2013-04-24 13:36:00,
2013-04-24 08:41:00,33.5,31.7,30.21,North,360,9.2,9.2,93,0.00,BKN,SKC,0.01,172.0,WeatherDisplay:10.37,2013-04-24 13:41:00,
2013-04-24 08:46:00,33.7,31.6,30.22,North,9,12.7,12.7,92,0.00,OVC,SKC,0.01,114.0,WeatherDisplay:10.37,2013-04-24 13:46:00,
2013-04-24 08:51:00,33.8,31.7,30.22,NNE,24,10.4,10.4,92,0.00,OVC,SKC,0.01,134.0,WeatherDisplay:10.37,2013-04-24 13:51:00,
2013-04-24 08:56:00,33.8,31.7,30.22,NNE,23,6.9,6.9,92,0.00,OVC,SKC,0.01,84.0,WeatherDisplay:10.37,2013-04-24 13:56:00,
2013-04-24 09:01:00,34.0,31.6,30.21,NNE,13,5.8,5.8,91,0.00,OVC,SKC,0.01,98.0,WeatherDisplay:10.37,2013-04-24 14:01:00,
2013-04-24 09:06:00,34.1,31.7,30.21,NE,54,9.2,9.2,91,0.00,OVC,SKC,0.01,214.0,WeatherDisplay:10.37,2013-04-24 14:06:00,
2013-04-24 09:11:00,35.0,32.9,30.21,North,5,10.4,10.4,92,0.00,BKN,SKC,0.01,206.0,WeatherDisplay:10.37,2013-04-24 14:11:00,
2013-04-24 09:16:00,35.3,32.7,30.21,NE,42,11.5,11.5,90,0.00,OVC,SKC,0.01,169.0,WeatherDisplay:10.37,2013-04-24 14:16:00,
2013-04-24 09:21:00,35.6,33.0,30.21,NNE,16,6.9,6.9,90,0.00,OVC,SKC,0.01,148.0,WeatherDisplay:10.37,2013-04-24 14:21:00,
2013-04-24 09:26:00,35.7,32.8,30.21,North,5,9.0,9.0,89,0.00,OVC,SKC,0.01,183.0,WeatherDisplay:10.37,2013-04-24 14:26:00,
2013-04-24 09:31:00,35.6,32.7,30.22,NNE,22,3.0,3.0,89,0.00,OVC,SKC,0.01,186.0,WeatherDisplay:10.37,2013-04-24 14:31:00,
2013-04-24 09:36:00,35.7,32.5,30.22,NNE,26,6.9,6.9,88,0.00,OVC,SKC,0.01,195.0,WeatherDisplay:10.37,2013-04-24 14:36:00,
2013-04-24 09:41:00,35.6,32.4,30.21,North,355,9.0,9.0,88,0.00,OVC,SKC,0.01,216.0,WeatherDisplay:10.37,2013-04-24 14:41:00,
2013-04-24 09:46:00,35.9,32.7,30.22,NNE,31,3.5,3.5,88,0.00,BKN,SKC,0.01,285.0,WeatherDisplay:10.37,2013-04-24 14:46:00,
2013-04-24 09:51:00,36.5,33.3,30.22,NNE,17,6.0,6.0,88,0.00,OVC,SKC,0.01,218.0,WeatherDisplay:10.37,2013-04-24 14:51:00,
2013-04-24 09:56:00,36.6,32.8,30.22,WNW,302,6.9,6.9,86,0.00,BKN,SKC,0.01,292.0,WeatherDisplay:10.37,2013-04-24 14:56:00,
2013-04-24 10:01:00,37.0,33.2,30.22,NNE,17,11.5,11.5,86,0.00,OVC,SKC,0.01,213.0,WeatherDisplay:10.37,2013-04-24 15:01:00,
2013-04-24 10:09:00,37.5,33.1,30.22,NE,52,6.0,6.0,84,0.00,SCT,SKC,0.01,397.0,WeatherDisplay:10.37,2013-04-24 15:09:00,
2013-04-24 10:14:00,38.0,33.0,30.23,ENE,63,11.5,11.5,82,0.00,BKN,SKC,0.01,246.0,WeatherDisplay:10.37,2013-04-24 15:14:00,
2013-04-24 10:19:00,38.5,33.2,30.23,NNE,28,10.4,10.4,81,0.00,BKN,SKC,0.01,381.0,WeatherDisplay:10.37,2013-04-24 15:19:00,
2013-04-24 10:24:00,39.7,34.3,30.23,SSE,149,4.6,4.6,81,0.00,SCT,SKC,0.01,582.0,WeatherDisplay:10.37,2013-04-24 15:24:00,
2013-04-24 10:29:00,40.2,33.9,30.23,West,267,6.9,6.9,78,0.00,SCT,SKC,0.01,582.0,WeatherDisplay:10.37,2013-04-24 15:29:00,
2013-04-24 10:34:00,39.7,33.4,30.23,North,5,4.6,4.6,78,0.00,OVC,SKC,0.01,239.0,WeatherDisplay:10.37,2013-04-24 15:34:00,
2013-04-24 10:39:00,39.7,33.1,30.23,NW,313,3.5,3.5,77,0.00,OVC,SKC,0.01,151.0,WeatherDisplay:10.37,2013-04-24 15:39:00,
2013-04-24 10:45:00,39.3,32.7,30.24,NNE,15,4.0,4.0,77,0.00,CLR,SKC,0.01,861.0,WeatherDisplay:10.37,2013-04-24 15:45:00,
2013-04-24 10:49:00,39.7,32.8,30.25,NNE,19,6.0,6.0,76,0.00,CLR,SKC,0.01,837.0,WeatherDisplay:10.37,2013-04-24 15:49:00,
2013-04-24 10:55:00,40.1,31.8,30.25,North,5,8.1,8.1,72,0.00,CLR,SKC,0.01,856.0,WeatherDisplay:10.37,2013-04-24 15:55:00,
2013-04-24 11:00:00,40.6,31.6,30.25,NNE,20,10.4,10.4,70,0.00,CLR,SKC,0.01,863.0,WeatherDisplay:10.37,2013-04-24 16:00:00,
2013-04-24 11:05:00,41.3,33.0,30.26,North,5,4.0,4.0,72,0.00,CLR,SKC,0.01,937.0,WeatherDisplay:10.37,2013-04-24 16:05:00,
2013-04-24 11:10:00,41.6,33.2,30.26,West,271,11.5,11.5,72,0.00,CLR,SKC,0.01,888.0,WeatherDisplay:10.37,2013-04-24 16:10:00,
2013-04-24 11:15:00,42.6,34.2,30.27,North,360,3.0,3.0,72,0.00,CLR,SKC,0.01,889.0,WeatherDisplay:10.37,2013-04-24 16:15:00,
2013-04-24 11:20:00,42.2,32.4,30.26,NE,40,11.0,11.0,68,0.00,CLR,SKC,0.01,895.0,WeatherDisplay:10.37,2013-04-24 16:20:00,
2013-04-24 11:25:00,42.9,31.2,30.26,North,355,9.2,9.2,63,0.00,CLR,SKC,0.01,904.0,WeatherDisplay:10.37,2013-04-24 16:25:00,
2013-04-24 11:30:00,42.8,30.7,30.26,NW,325,11.5,11.5,62,0.00,CLR,SKC,0.01,898.0,WeatherDisplay:10.37,2013-04-24 16:30:00,
2013-04-24 11:35:00,43.4,32.0,30.26,West,269,11.5,11.5,64,0.00,CLR,SKC,0.01,914.0,WeatherDisplay:10.37,2013-04-24 16:35:00,
2013-04-24 11:40:00,43.7,33.5,30.27,WNW,288,10.0,10.0,67,0.00,CLR,SKC,0.01,928.0,WeatherDisplay:10.37,2013-04-24 16:40:00,
2013-04-24 11:45:00,44.0,31.0,30.27,SE,140,4.6,4.6,60,0.00,CLR,SKC,0.01,928.0,WeatherDisplay:10.37,2013-04-24 16:45:00,
2013-04-24 11:50:00,44.1,31.9,30.27,SW,235,8.1,8.1,62,0.00,CLR,SKC,0.01,942.0,WeatherDisplay:10.37,2013-04-24 16:50:00,
2013-04-24 11:55:00,45.5,33.6,30.26,NNW,337,4.0,4.0,63,0.00,CLR,SKC,0.01,951.0,WeatherDisplay:10.37,2013-04-24 16:55:00,
2013-04-24 12:00:00,44.4,31.0,30.27,NNE,14,10.4,10.4,59,0.00,CLR,SKC,0.01,947.0,WeatherDisplay:10.37,2013-04-24 17:00:00,
2013-04-24 12:05:00,43.6,30.6,30.27,North,355,7.0,7.0,60,0.00,CLR,SKC,0.01,953.0,WeatherDisplay:10.37,2013-04-24 17:05:00,
2013-04-24 12:10:00,44.5,31.9,30.26,NW,315,9.2,9.2,61,0.00,CLR,SKC,0.01,963.0,WeatherDisplay:10.37,2013-04-24 17:10:00,
2013-04-24 12:15:00,44.8,32.2,30.27,NW,308,3.5,3.5,61,0.00,FEW,SKC,0.01,972.0,WeatherDisplay:10.37,2013-04-24 17:15:00,
2013-04-24 12:20:00,45.5,32.4,30.26,East,88,0.0,0.1,60,0.00,FEW,SKC,0.01,977.0,WeatherDisplay:10.37,2013-04-24 17:20:00,
2013-04-24 12:25:00,46.0,32.0,30.26,NNE,33,9.0,9.0,58,0.00,CLR,SKC,0.01,983.0,WeatherDisplay:10.37,2013-04-24 17:25:00,
2013-04-24 12:30:00,45.4,31.5,30.26,SSW,213,8.1,8.1,58,0.00,FEW,SKC,0.01,984.0,WeatherDisplay:10.37,2013-04-24 17:30:00,
2013-04-24 12:35:00,46.0,32.9,30.26,West,263,6.9,6.9,60,0.00,CLR,SKC,0.01,995.0,WeatherDisplay:10.37,2013-04-24 17:35:00,
2013-04-24 12:40:00,46.1,33.0,30.26,NNE,30,9.2,9.2,60,0.00,FEW,SKC,0.01,993.0,WeatherDisplay:10.37,2013-04-24 17:40:00,
2013-04-24 12:45:00,46.9,33.3,30.26,East,80,6.9,6.9,59,0.00,FEW,SKC,0.01,1002.0,WeatherDisplay:10.37,2013-04-24 17:45:00,
2013-04-24 12:50:00,46.1,30.8,30.26,NNE,30,6.9,6.9,55,0.00,CLR,SKC,0.01,1009.0,WeatherDisplay:10.37,2013-04-24 17:50:00,
2013-04-24 12:55:00,45.9,32.8,30.26,NNW,330,5.0,5.0,60,0.00,FEW,SKC,0.01,1005.0,WeatherDisplay:10.37,2013-04-24 17:55:00,
2013-04-24 13:00:00,45.8,33.1,30.26,North,355,7.0,7.0,61,0.00,CLR,SKC,0.01,1014.0,WeatherDisplay:10.37,2013-04-24 18:00:00,
2013-04-24 13:05:00,48.1,33.1,30.26,North,360,7.0,7.0,56,0.00,CLR,SKC,0.01,1009.0,WeatherDisplay:10.37,2013-04-24 18:05:00,
2013-04-24 13:10:00,46.6,33.0,30.25,NNW,337,3.5,3.5,59,0.00,FEW,SKC,0.01,1018.0,WeatherDisplay:10.37,2013-04-24 18:10:00,
2013-04-24 13:15:00,47.6,32.2,30.26,NE,38,6.9,6.9,55,0.00,CLR,SKC,0.01,1013.0,WeatherDisplay:10.37,2013-04-24 18:15:00,
2013-04-24 13:20:00,47.2,32.7,30.25,NNW,336,2.3,2.3,57,0.00,FEW,SKC,0.01,1009.0,WeatherDisplay:10.37,2013-04-24 18:20:00,
2013-04-24 13:25:00,49.0,32.6,30.25,WSW,246,6.9,6.9,53,0.00,CLR,SKC,0.01,1013.0,WeatherDisplay:10.37,2013-04-24 18:25:00,
2013-04-24 13:30:00,48.4,33.9,30.25,NE,38,3.5,3.5,57,0.00,CLR,SKC,0.01,1013.0,WeatherDisplay:10.37,2013-04-24 18:30:00,
2013-04-24 13:35:00,48.3,31.9,30.25,SW,232,6.9,6.9,53,0.00,FEW,SKC,0.01,1007.0,WeatherDisplay:10.37,2013-04-24 18:35:00,
2013-04-24 13:40:00,48.4,33.4,30.25,WSW,254,10.0,10.0,56,0.00,CLR,SKC,0.01,1009.0,WeatherDisplay:10.37,2013-04-24 18:40:00,
2013-04-24 13:45:00,48.4,32.5,30.26,North,355,6.9,6.9,54,0.00,CLR,SKC,0.01,1005.0,WeatherDisplay:10.37,2013-04-24 18:45:00,
2013-04-24 13:50:00,47.4,31.6,30.26,WNW,283,4.6,4.6,54,0.00,CLR,SKC,0.01,1005.0,WeatherDisplay:10.37,2013-04-24 18:50:00,
2013-04-24 13:55:00,48.5,32.1,30.26,WNW,292,10.4,10.4,53,0.00,CLR,SKC,0.01,1002.0,WeatherDisplay:10.37,2013-04-24 18:55:00,
2013-04-24 14:00:00,48.8,33.8,30.26,North,360,3.5,3.5,56,0.00,CLR,SKC,0.01,995.0,WeatherDisplay:10.37,2013-04-24 19:00:00,
2013-04-24 14:05:00,48.8,32.9,30.26,West,281,3.5,3.5,54,0.00,CLR,SKC,0.01,993.0,WeatherDisplay:10.37,2013-04-24 19:05:00,
2013-04-24 14:10:00,49.4,31.5,30.26,WNW,298,9.0,9.0,50,0.00,CLR,SKC,0.01,993.0,WeatherDisplay:10.37,2013-04-24 19:10:00,
2013-04-24 14:15:00,50.4,31.9,30.26,NNW,337,4.6,4.6,49,0.00,CLR,SKC,0.01,990.0,WeatherDisplay:10.37,2013-04-24 19:15:00,
2013-04-24 14:20:00,49.0,31.6,30.26,WNW,301,5.0,5.1,51,0.00,CLR,SKC,0.01,981.0,WeatherDisplay:10.37,2013-04-24 19:20:00,
2013-04-24 14:25:00,50.5,32.5,30.26,NW,321,4.6,4.6,50,0.00,CLR,SKC,0.01,983.0,WeatherDisplay:10.37,2013-04-24 19:25:00,
2013-04-24 14:30:00,51.7,30.5,30.26,West,266,10.4,10.4,44,0.00,CLR,SKC,0.01,974.0,WeatherDisplay:10.37,2013-04-24 19:30:00,
2013-04-24 14:35:00,50.6,31.6,30.26,WSW,249,5.0,5.0,48,0.00,CLR,SKC,0.01,962.0,WeatherDisplay:10.37,2013-04-24 19:35:00,
2013-04-24 14:40:00,50.6,30.0,30.26,ENE,71,3.5,3.5,45,0.00,CLR,SKC,0.01,953.0,WeatherDisplay:10.37,2013-04-24 19:40:00,
2013-04-24 14:45:00,50.3,29.2,30.26,WNW,298,7.0,7.0,44,0.00,CLR,SKC,0.01,951.0,WeatherDisplay:10.37,2013-04-24 19:45:00,
2013-04-24 14:50:00,50.5,29.9,30.26,West,267,4.0,4.0,45,0.00,CLR,SKC,0.01,942.0,WeatherDisplay:10.37,2013-04-24 19:50:00,
2013-04-24 14:55:00,51.7,31.0,30.26,West,275,3.5,3.5,45,0.00,CLR,SKC,0.01,937.0,WeatherDisplay:10.37,2013-04-24 19:55:00,
2013-04-24 15:00:00,52.3,30.4,30.26,NW,314,9.2,9.2,43,0.00,CLR,SKC,0.01,926.0,WeatherDisplay:10.37,2013-04-24 20:00:00,
2013-04-24 15:05:00,51.8,31.1,30.26,NNW,346,5.0,5.0,45,0.00,CLR,SKC,0.01,911.0,WeatherDisplay:10.37,2013-04-24 20:05:00,
2013-04-24 15:10:00,51.0,29.8,30.26,North,355,3.5,4.3,44,0.00,CLR,SKC,0.01,909.0,WeatherDisplay:10.37,2013-04-24 20:10:00,
2013-04-24 15:15:00,51.3,29.0,30.26,NNW,331,6.9,6.9,42,0.00,CLR,SKC,0.01,895.0,WeatherDisplay:10.37,2013-04-24 20:15:00,
2013-04-24 15:20:00,51.3,30.7,30.26,NNW,346,6.9,6.9,45,0.00,CLR,SKC,0.01,882.0,WeatherDisplay:10.37,2013-04-24 20:20:00,
2013-04-24 15:25:00,51.1,28.2,30.25,SW,236,9.2,9.2,41,0.00,CLR,SKC,0.01,870.0,WeatherDisplay:10.37,2013-04-24 20:25:00,
2013-04-24 15:30:00,52.3,28.1,30.25,WNW,292,12.7,12.7,39,0.00,CLR,SKC,0.01,860.0,WeatherDisplay:10.37,2013-04-24 20:30:00,
2013-04-24 15:35:00,51.8,28.8,30.25,NW,319,4.6,4.6,41,0.00,CLR,SKC,0.01,854.0,WeatherDisplay:10.37,2013-04-24 20:35:00,
2013-04-24 15:40:00,52.1,29.1,30.24,NW,306,3.5,3.5,41,0.00,CLR,SKC,0.01,840.0,WeatherDisplay:10.37,2013-04-24 20:40:00,
2013-04-24 15:45:00,52.3,31.0,30.25,WNW,296,4.0,4.0,44,0.00,CLR,SKC,0.01,826.0,WeatherDisplay:10.37,2013-04-24 20:45:00,
2013-04-24 15:50:00,53.2,31.8,30.25,West,277,4.6,4.6,44,0.00,CLR,SKC,0.01,817.0,WeatherDisplay:10.37,2013-04-24 20:50:00,
2013-04-24 15:55:00,52.5,30.0,30.25,NNW,344,5.8,5.8,42,0.00,CLR,SKC,0.01,802.0,WeatherDisplay:10.37,2013-04-24 20:55:00,
2013-04-24 16:00:00,51.9,27.7,30.24,NNW,344,3.5,3.5,39,0.00,CLR,SKC,0.01,788.0,WeatherDisplay:10.37,2013-04-24 21:00:00,
2013-04-24 16:05:00,52.5,29.5,30.25,NW,325,5.0,5.0,41,0.00,CLR,SKC,0.01,775.0,WeatherDisplay:10.37,2013-04-24 21:05:00,
2013-04-24 16:10:00,52.1,29.7,30.24,West,279,6.9,6.9,42,0.00,CLR,SKC,0.01,761.0,WeatherDisplay:10.37,2013-04-24 21:10:00,
2013-04-24 16:15:00,52.0,29.6,30.25,NW,319,6.9,6.9,42,0.00,CLR,SKC,0.01,744.0,WeatherDisplay:10.37,2013-04-24 21:15:00,
2013-04-24 16:20:00,52.8,29.7,30.24,NNE,29,8.1,8.1,41,0.00,CLR,SKC,0.01,733.0,WeatherDisplay:10.37,2013-04-24 21:20:00,
2013-04-24 16:25:00,53.6,30.4,30.24,NW,326,3.5,3.5,41,0.00,CLR,SKC,0.01,715.0,WeatherDisplay:10.37,2013-04-24 21:25:00,
2013-04-24 16:30:00,52.7,28.4,30.24,WNW,294,6.9,6.9,39,0.00,CLR,SKC,0.01,700.0,WeatherDisplay:10.37,2013-04-24 21:30:00,
2013-04-24 16:35:00,52.7,29.6,30.24,NNW,333,6.0,6.0,41,0.00,CLR,SKC,0.01,689.0,WeatherDisplay:10.37,2013-04-24 21:35:00,
2013-04-24 16:40:00,53.2,31.3,30.24,WSW,248,9.2,9.2,43,0.00,CLR,SKC,0.01,670.0,WeatherDisplay:10.37,2013-04-24 21:40:00,
2013-04-24 16:45:00,53.3,29.6,30.24,NNW,333,4.0,4.6,40,0.00,CLR,SKC,0.01,654.0,WeatherDisplay:10.37,2013-04-24 21:45:00,
2013-04-24 16:50:00,53.2,28.9,30.24,WSW,248,4.0,4.0,39,0.00,CLR,SKC,0.01,642.0,WeatherDisplay:10.37,2013-04-24 21:50:00,
2013-04-24 16:55:00,53.1,28.8,30.24,WSW,249,11.5,11.5,39,0.00,CLR,SKC,0.01,621.0,WeatherDisplay:10.37,2013-04-24 21:55:00,
2013-04-24 17:00:00,53.6,29.2,30.24,NNE,31,6.9,6.9,39,0.00,CLR,SKC,0.01,605.0,WeatherDisplay:10.37,2013-04-24 22:00:00,
2013-04-24 17:05:00,52.8,29.1,30.24,North,355,10.4,10.4,40,0.00,CLR,SKC,0.01,589.0,WeatherDisplay:10.37,2013-04-24 22:05:00,
2013-04-24 17:10:00,53.3,27.7,30.24,WNW,300,5.8,5.8,37,0.00,CLR,SKC,0.01,573.0,WeatherDisplay:10.37,2013-04-24 22:10:00,
2013-04-24 17:15:00,53.4,30.9,30.24,NW,313,1.2,0.0,42,0.00,CLR,SKC,0.01,552.0,WeatherDisplay:10.37,2013-04-24 22:15:00,
2013-04-24 17:20:00,53.2,29.5,30.23,NE,54,10.4,10.4,40,0.00,CLR,SKC,0.01,534.0,WeatherDisplay:10.37,2013-04-24 22:20:00,
2013-04-24 17:25:00,52.8,29.1,30.23,NNW,344,1.2,1.2,40,0.00,CLR,SKC,0.01,517.0,WeatherDisplay:10.37,2013-04-24 22:25:00,
2013-04-24 17:30:00,53.0,28.0,30.23,NNE,23,4.6,4.6,38,0.00,CLR,SKC,0.01,501.0,WeatherDisplay:10.37,2013-04-24 22:30:00,
2013-04-24 17:35:00,52.2,28.0,30.24,North,360,8.1,8.1,39,0.00,CLR,SKC,0.01,483.0,WeatherDisplay:10.37,2013-04-24 22:35:00,
2013-04-24 17:40:00,52.3,28.1,30.24,NNW,337,2.3,2.3,39,0.00,CLR,SKC,0.01,462.0,WeatherDisplay:10.37,2013-04-24 22:40:00,
2013-04-24 17:45:00,52.7,28.4,30.24,NNW,334,5.8,5.8,39,0.00,CLR,SKC,0.01,445.0,WeatherDisplay:10.37,2013-04-24 22:45:00,
2013-04-24 17:50:00,52.6,28.9,30.23,NNW,327,1.2,1.2,40,0.00,CLR,SKC,0.01,422.0,WeatherDisplay:10.37,2013-04-24 22:50:00,
2013-04-24 17:55:00,53.2,28.9,30.24,NNW,341,3.5,3.5,39,0.00,CLR,SKC,0.01,404.0,WeatherDisplay:10.37,2013-04-24 22:55:00,
2013-04-24 18:00:00,52.3,28.7,30.23,North,355,5.8,5.8,40,0.00,CLR,SKC,0.01,385.0,WeatherDisplay:10.37,2013-04-24 23:00:00,
2013-04-24 18:05:00,52.5,30.0,30.23,West,259,1.2,1.2,42,0.00,CLR,SKC,0.01,369.0,WeatherDisplay:10.37,2013-04-24 23:05:00,
2013-04-24 18:10:00,52.7,29.6,30.23,North,355,3.0,3.0,41,0.00,CLR,SKC,0.01,350.0,WeatherDisplay:10.37,2013-04-24 23:10:00,
2013-04-24 18:15:00,53.0,28.7,30.23,North,355,3.5,3.5,39,0.00,CLR,SKC,0.01,329.0,WeatherDisplay:10.37,2013-04-24 23:15:00,
2013-04-24 18:20:00,52.5,28.2,30.24,East,82,3.5,3.5,39,0.00,CLR,SKC,0.01,309.0,WeatherDisplay:10.37,2013-04-24 23:20:00,
2013-04-24 18:25:00,52.6,29.5,30.24,North,11,3.5,3.5,41,0.00,CLR,SKC,0.01,290.0,WeatherDisplay:10.37,2013-04-24 23:25:00,
2013-04-24 18:30:00,52.4,30.5,30.24,NE,40,3.5,3.5,43,0.00,CLR,SKC,0.01,271.0,WeatherDisplay:10.37,2013-04-24 23:30:00,
2013-04-24 18:35:00,52.3,28.7,30.24,NNE,21,4.6,4.6,40,0.00,CLR,SKC,0.01,251.0,WeatherDisplay:10.37,2013-04-24 23:35:00,
2013-04-24 18:40:00,51.9,30.1,30.24,NNE,27,0.0,0.0,43,0.00,CLR,SKC,0.01,236.0,WeatherDisplay:10.37,2013-04-24 23:40:00,
2013-04-24 18:45:00,51.9,27.7,30.24,NNE,24,4.0,4.0,39,0.00,CLR,SKC,0.01,216.0,WeatherDisplay:10.37,2013-04-24 23:45:00,
2013-04-24 18:50:00,51.6,26.8,30.24,North,11,5.8,5.8,38,0.00,CLR,SKC,0.01,193.0,WeatherDisplay:10.37,2013-04-24 23:50:00,
2013-04-24 18:55:00,51.3,25.2,30.24,NNW,338,3.5,3.5,36,0.00,CLR,SKC,0.01,172.0,WeatherDisplay:10.37,2013-04-24 23:55:00,
2013-04-24 19:00:00,51.3,26.5,30.24,NW,319,3.0,3.0,38,0.00,CLR,SKC,0.01,151.0,WeatherDisplay:10.37,2013-04-25 00:00:00,
2013-04-24 19:05:00,51.4,26.6,30.25,NW,318,3.0,3.0,38,0.00,CLR,SKC,0.01,130.0,WeatherDisplay:10.37,2013-04-25 00:05:00,
2013-04-24 19:10:00,51.4,26.6,30.25,NNW,331,1.2,1.2,38,0.00,FEW,SKC,0.01,113.0,WeatherDisplay:10.37,2013-04-25 00:10:00,
2013-04-24 19:15:00,51.4,26.6,30.25,NNW,334,1.2,0.0,38,0.00,FEW,SKC,0.01,95.0,WeatherDisplay:10.37,2013-04-25 00:15:00,
2013-04-24 19:20:00,51.4,27.9,30.25,NNW,335,0.0,0.0,40,0.00,FEW,SKC,0.01,76.0,WeatherDisplay:10.37,2013-04-25 00:20:00,
2013-04-24 19:25:00,51.4,27.2,30.25,NNW,339,1.2,1.2,39,0.00,SCT,SKC,0.01,60.0,WeatherDisplay:10.37,2013-04-25 00:25:00,
2013-04-24 19:30:00,51.4,27.2,30.25,NNW,339,2.3,2.3,39,0.00,SCT,SKC,0.01,46.0,WeatherDisplay:10.37,2013-04-25 00:30:00,
2013-04-24 19:35:00,51.4,28.5,30.25,NNW,338,1.2,1.2,41,0.00,SCT,SKC,0.01,33.0,WeatherDisplay:10.37,2013-04-25 00:35:00,
2013-04-24 19:40:00,51.1,30.5,30.25,NNW,338,0.0,0.0,45,0.00,BKN,SKC,0.01,19.0,WeatherDisplay:10.37,2013-04-25 00:40:00,
2013-04-24 19:45:00,50.9,31.9,30.25,NNW,338,0.0,0.0,48,0.00,BKN,SKC,0.01,14.0,WeatherDisplay:10.37,2013-04-25 00:45:00,
2013-04-24 19:50:00,50.4,31.9,30.25,NNW,338,0.0,0.0,49,0.00,BKN,SKC,0.01,11.0,WeatherDisplay:10.37,2013-04-25 00:50:00,
2013-04-24 19:55:00,49.9,32.0,30.25,NNW,338,0.0,0.0,50,0.00,SCT,SKC,0.01,7.0,WeatherDisplay:10.37,2013-04-25 00:55:00,
2013-04-24 20:00:00,49.2,32.8,30.25,NNW,338,0.0,0.0,53,0.00,CLR,SKC,0.01,0.0,WeatherDisplay:10.37,2013-04-25 01:00:00,
2013-04-24 20:05:00,48.4,32.5,30.26,NNW,338,0.0,0.0,54,0.00,CLR,SKC,0.01,0.0,WeatherDisplay:10.37,2013-04-25 01:05:00,
2013-04-24 20:10:00,47.4,32.0,30.26,NNW,338,0.0,0.0,55,0.00,CLR,SKC,0.01,0.0,WeatherDisplay:10.37,2013-04-25 01:10:00,
2013-04-24 20:15:00,46.5,30.7,30.26,NNW,338,0.0,0.0,54,0.00,CLR,SKC,0.01,0.0,WeatherDisplay:10.37,2013-04-25 01:15:00,
2013-04-24 20:20:00,45.8,30.5,30.27,NNW,338,0.0,0.0,55,0.00,CLR,SKC,0.01,0.0,WeatherDisplay:10.37,2013-04-25 01:20:00,
2013-04-24 20:25:00,45.1,30.8,30.27,NNW,338,0.0,0.0,57,0.00,CLR,SKC,0.01,0.0,WeatherDisplay:10.37,2013-04-25 01:25:00,
2013-04-24 20:30:00,44.5,31.9,30.27,NNW,338,0.0,0.0,61,0.00,CLR,SKC,0.01,0.0,WeatherDisplay:10.37,2013-04-25 01:30:00,
2013-04-24 20:35:00,43.8,30.8,30.27,NNW,338,1.2,1.2,60,0.00,CLR,SKC,0.01,0.0,WeatherDisplay:10.37,2013-04-25 01:35:00,
2013-04-24 20:40:00,42.9,29.5,30.27,NNW,338,0.0,0.0,59,0.00,CLR,SKC,0.01,0.0,WeatherDisplay:10.37,2013-04-25 01:40:00,
2013-04-24 20:45:00,42.3,29.4,30.27,NNW,338,1.2,0.0,60,0.00,CLR,SKC,0.01,0.0,WeatherDisplay:10.37,2013-04-25 01:45:00,
2013-04-24 20:50:00,41.8,30.1,30.27,NNW,338,0.0,0.0,63,0.00,CLR,SKC,0.01,0.0,WeatherDisplay:10.37,2013-04-25 01:50:00,
2013-04-24 20:55:00,41.3,30.4,30.28,NNW,338,0.0,0.0,65,0.00,CLR,SKC,0.01,0.0,WeatherDisplay:10.37,2013-04-25 01:55:00,
2013-04-24 21:00:00,40.9,30.4,30.27,NNW,338,1.2,1.2,66,0.00,CLR,SKC,0.01,0.0,WeatherDisplay:10.37,2013-04-25 02:00:00,
2013-04-24 21:05:00,40.5,29.3,30.28,NNW,338,0.0,0.0,64,0.00,CLR,SKC,0.01,0.0,WeatherDisplay:10.37,2013-04-25 02:05:00,
2013-04-24 21:10:00,40.2,29.0,30.28,NNW,338,0.0,0.0,64,0.00,CLR,SKC,0.01,0.0,WeatherDisplay:10.37,2013-04-25 02:10:00,
2013-04-24 21:15:00,40.1,30.7,30.28,NNW,338,0.0,0.0,69,0.00,CLR,SKC,0.01,0.0,WeatherDisplay:10.37,2013-04-25 02:15:00,
2013-04-24 21:20:00,39.9,30.5,30.28,NNW,338,0.0,0.0,69,0.00,CLR,SKC,0.01,0.0,WeatherDisplay:10.37,2013-04-25 02:20:00,
2013-04-24 21:25:00,39.6,30.3,30.28,NNW,338,0.0,0.0,69,0.00,CLR,SKC,0.01,0.0,WeatherDisplay:10.37,2013-04-25 02:25:00,
2013-04-24 21:30:00,39.5,31.2,30.28,NNW,338,0.0,0.0,72,0.00,CLR,SKC,0.01,0.0,WeatherDisplay:10.37,2013-04-25 02:30:00,
2013-04-24 21:35:00,39.3,31.4,30.29,NNW,338,0.0,0.0,73,0.00,CLR,SKC,0.01,0.0,WeatherDisplay:10.37,2013-04-25 02:35:00,
2013-04-24 21:40:00,39.1,31.5,30.29,NNW,338,0.0,0.0,74,0.00,CLR,SKC,0.01,0.0,WeatherDisplay:10.37,2013-04-25 02:40:00,
2013-04-24 21:45:00,38.9,30.6,30.29,NNW,338,0.0,0.0,72,0.00,CLR,SKC,0.01,0.0,WeatherDisplay:10.37,2013-04-25 02:45:00,
2013-04-24 21:50:00,38.7,30.8,30.29,NNW,338,1.2,1.2,73,0.00,CLR,SKC,0.01,0.0,WeatherDisplay:10.37,2013-04-25 02:50:00,
2013-04-24 21:55:00,38.5,31.3,30.30,NNW,338,0.0,0.0,75,0.00,CLR,SKC,0.01,0.0,WeatherDisplay:10.37,2013-04-25 02:55:00,
2013-04-24 22:00:00,38.3,31.4,30.29,NNW,338,0.0,0.0,76,0.00,CLR,SKC,0.01,0.0,WeatherDisplay:10.37,2013-04-25 03:00:00,
2013-04-24 22:05:00,38.2,31.3,30.29,NNW,338,0.0,0.0,76,0.00,CLR,SKC,0.01,0.0,WeatherDisplay:10.37,2013-04-25 03:05:00,
2013-04-24 22:10:00,38.0,31.4,30.29,NNW,338,0.0,0.0,77,0.00,CLR,SKC,0.01,0.0,WeatherDisplay:10.37,2013-04-25 03:10:00,
2013-04-24 22:15:00,37.8,31.9,30.30,NNW,338,0.0,0.0,79,0.00,CLR,SKC,0.01,0.0,WeatherDisplay:10.37,2013-04-25 03:15:00,
2013-04-24 22:20:00,37.6,31.0,30.29,NNW,338,0.0,0.0,77,0.00,CLR,SKC,0.01,0.0,WeatherDisplay:10.37,2013-04-25 03:20:00,
2013-04-24 22:25:00,37.4,31.5,30.28,NNW,338,0.0,0.0,79,0.00,CLR,SKC,0.01,0.0,WeatherDisplay:10.37,2013-04-25 03:25:00,
2013-04-24 22:30:00,37.3,31.7,30.29,NNW,338,0.0,0.0,80,0.00,CLR,SKC,0.01,0.0,WeatherDisplay:10.37,2013-04-25 03:30:00,
2013-04-24 22:35:00,37.2,32.2,30.28,NNW,338,0.0,0.0,82,0.00,CLR,SKC,0.01,0.0,WeatherDisplay:10.37,2013-04-25 03:35:00,
2013-04-24 22:40:00,37.0,31.1,30.28,NNW,338,0.0,0.0,79,0.00,CLR,SKC,0.01,0.0,WeatherDisplay:10.37,2013-04-25 03:40:00,
2013-04-24 22:45:00,36.8,31.2,30.28,NNW,338,0.0,0.0,80,0.00,CLR,SKC,0.01,0.0,WeatherDisplay:10.37,2013-04-25 03:45:00,
2013-04-24 22:50:00,36.6,30.7,30.28,NNW,338,0.0,0.0,79,0.00,CLR,SKC,0.01,0.0,WeatherDisplay:10.37,2013-04-25 03:50:00,
2013-04-24 22:55:00,36.3,30.4,30.29,NNW,338,0.0,0.0,79,0.00,CLR,SKC,0.01,0.0,WeatherDisplay:10.37,2013-04-25 03:55:00,
2013-04-24 23:00:00,36.1,30.2,30.29,NNW,338,0.0,0.0,79,0.00,CLR,SKC,0.01,0.0,WeatherDisplay:10.37,2013-04-25 04:00:00,
2013-04-24 23:01:00,36.0,30.1,30.29,NNW,338,1.2,0.0,79,0.00,CLR,SKC,0.01,0.0,WeatherDisplay:10.37,2013-04-25 04:01:00,
2013-04-24 23:02:00,36.0,30.1,30.29,NNW,338,0.0,0.0,79,0.00,CLR,SKC,0.01,0.0,WeatherDisplay:10.37,2013-04-25 04:02:00,
2013-04-24 23:03:00,36.0,30.4,30.29,NNW,338,0.0,0.0,80,0.00,CLR,SKC,0.01,0.0,WeatherDisplay:10.37,2013-04-25 04:03:00,
2013-04-24 23:04:00,36.0,30.4,30.29,NNW,338,0.0,0.0,80,0.00,CLR,SKC,0.01,0.0,WeatherDisplay:10.37,2013-04-25 04:04:00,
2013-04-24 23:09:00,35.8,29.9,30.29,NNW,338,0.0,0.0,79,0.00,CLR,SKC,0.01,0.0,WeatherDisplay:10.37,2013-04-25 04:09:00,
2013-04-24 23:14:00,35.7,30.1,30.30,NNW,338,0.0,0.0,80,0.00,CLR,SKC,0.01,0.0,WeatherDisplay:10.37,2013-04-25 04:14:00,
2013-04-24 23:19:00,35.6,30.0,30.30,NNW,338,2.3,2.3,80,0.00,CLR,SKC,0.01,0.0,WeatherDisplay:10.37,2013-04-25 04:19:00,
2013-04-24 23:24:00,35.4,30.1,30.30,NNW,338,0.0,0.0,81,0.00,CLR,SKC,0.01,0.0,WeatherDisplay:10.37,2013-04-25 04:24:00,
2013-04-24 23:29:00,35.1,29.2,30.30,NNW,338,1.2,1.2,79,0.00,CLR,SKC,0.01,0.0,WeatherDisplay:10.37,2013-04-25 04:29:00,
2013-04-24 23:34:00,35.0,29.5,30.31,NNW,338,1.0,0.0,80,0.00,CLR,SKC,0.01,0.0,WeatherDisplay:10.37,2013-04-25 04:34:00,
2013-04-24 23:39:00,34.9,29.4,30.31,NNW,338,1.2,0.0,80,0.00,CLR,SKC,0.01,0.0,WeatherDisplay:10.37,2013-04-25 04:39:00,
2013-04-24 23:44:00,34.7,29.2,30.32,NNW,338,0.0,0.0,80,0.00,CLR,SKC,0.01,0.0,WeatherDisplay:10.37,2013-04-25 04:44:00,
2013-04-24 23:49:00,34.7,28.9,30.32,NNW,338,0.0,0.0,79,0.00,CLR,SKC,0.01,0.0,WeatherDisplay:10.37,2013-04-25 04:49:00,
2013-04-24 23:54:00,35.1,29.9,30.32,NNW,338,0.0,0.0,81,0.00,CLR,SKC,0.01,0.0,WeatherDisplay:10.37,2013-04-25 04:54:00,
2013-04-24 23:59:00,35.5,29.3,30.32,NNW,338,0.0,0.0,78,0.00,CLR,SKC,0.01,0.0,WeatherDisplay:10.37,2013-04-25 04:59:00,